Airport View

Enter AWOS ICAO identifier for current METAR.

ex. KFNL

KHST 280056Z AUTO 00000KT 10SM OVC070 27/24 A2991 RMK AO2 SLP132 T02650239

28 Sep 2020 01:47

Other Area AWOS: KTMB - KMIA - KOPF - KHWO

TAF KHST 271900Z 2719/2901 VRB06KT 9999 SCT030 QNH2986INS TEMPO 2719/2723 VRB10G15KT 9000 -TSRA BKN030CB BECMG 2814/2815 12008KT 9999 SCT030 QNH2986INS TEMPO 2819/2823 VRB10G15KT 9000 -TSRA BKN025CB TX32/2719Z TN25/2810Z